VAM Template | Vabird

Vabird! Vabird Marcello Mazzieri




 INFORMACIÓN METAR y TAF
METAR FOR LEJR
ADDS - METARS form results

(0356 UTC 21 October 2020)
Data provider http://aviationweather.gov/metar/data/
 
METAR text: LEJR 210330Z 17004KT 140V210 9999 FEW024 SCT035 16/16 Q1008
Conditions at: LEJR (JEREZ (CIV/MIL) , ES) observed 0330 UTC 21 October 2020
Temperature: 16.0°C (61°F)
Dewpoint: 16.0°C (61°F) [RH = 100%]
Pressure (altimeter): 29.76 inches Hg (1008.0 mb)
Winds: from the S (170 degrees) at 5 MPH (4 knots; 2.1 m/s)
Visibility: 6 or more miles (10+ km)
Ceiling: at least 12,000 feet AGL
Clouds: few clouds at 2400 feet AGL
scattered clouds at 3500 feet AGL
Weather: no significant weather observed at this time

METAR text: LEJR 210300Z AUTO 20011KT 170V230 8000 -RA FEW013 SCT032 BKN047 17/16 Q1008 RERA
Conditions at: LEJR (JEREZ (CIV/MIL) , ES) observed 0300 UTC 21 October 2020
Temperature: 17.0°C (63°F)
Dewpoint: 16.0°C (61°F) [RH = 94%]
Pressure (altimeter): 29.76 inches Hg (1008.0 mb)
Winds: from the SSW (200 degrees) at 13 MPH (11 knots; 5.7 m/s)
Visibility: 5 miles ( 8 km)
Ceiling: 4700 feet AGL
Clouds: few clouds at 1300 feet AGL
scattered clouds at 3200 feet AGL
broken clouds at 4700 feet AGL
Weather: -RA  (light rain)

Forecast for: LEJR (JEREZ (CIV/MIL) , ES)
Text: TAF LEJR 202300Z 2100/2124 19009KT 9999 SCT040 TX22/2114Z TN14/2106Z
Forecast period: 0000 UTC 21 October 2020 to 0000 UTC 22 October 2020
Forecast type: FROM: standard forecast or significant change
Winds: from the S (190 degrees) at 10 MPH (9 knots; 4.6 m/s)
Visibility: 6 or more miles (10+ km)
Ceiling: at least 12,000 feet AGL
Clouds: scattered clouds at 4000 feet AGL
Weather: no significant weather forecast for this period
Text: PROB30
Forecast period: 0000 to 1800 UTC 21 October 2020
Forecast type: TEMPORARY: The following changes expected for less than half the time period
Visibility: 1.86 miles (2.99 km)
Ceiling: at least 12,000 feet AGL
Clouds: scattered clouds at 1500 feet AGL
few clouds at 3000 feet AGL
Weather: SHRA  (rain showers)
Text: TEMPO 2100/2118 3000 SHRA SCT015 FEW030CB
Forecast period: 1800 UTC 21 October 2020 to 0000 UTC 22 October 2020
Forecast type: TEMPORARY: The following changes expected for less than half the time period
Visibility: 2.49 miles (4.01 km)
Ceiling: 1200 feet AGL
Clouds: broken clouds at 1200 feet AGL
Weather: RA  (moderate rain)

 MAPA DE AEROPUERTO

 INFORMACIÓN DE PISTA